createdAt,value
2023-04-21T00:01:29.230Z,5.13
2023-04-21T00:03:55.806Z,5.13
2023-04-21T00:06:23.034Z,5.08
2023-04-21T00:08:49.305Z,5.02
2023-04-21T00:11:15.457Z,5.02
2023-04-21T00:13:41.580Z,5.03
2023-04-21T00:16:07.712Z,5.01
2023-04-21T00:18:33.965Z,4.99
2023-04-21T00:21:00.236Z,4.95
2023-04-21T00:23:26.390Z,4.89
2023-04-21T00:25:52.903Z,4.86
2023-04-21T00:28:19.055Z,4.87
2023-04-21T00:30:45.568Z,4.85
2023-04-21T00:33:11.972Z,4.80
2023-04-21T00:35:38.134Z,4.71
2023-04-21T00:38:04.248Z,4.65
2023-04-21T00:40:30.336Z,4.67
2023-04-21T00:42:56.615Z,4.67
2023-04-21T00:45:22.682Z,4.66
2023-04-21T00:47:48.875Z,4.61
2023-04-21T00:50:15.374Z,4.53
2023-04-21T00:52:41.551Z,4.46
2023-04-21T00:55:07.698Z,4.43
2023-04-21T00:57:33.797Z,4.39
2023-04-21T01:00:00.228Z,4.33
2023-04-21T01:02:27.890Z,4.29
2023-04-21T01:04:54.061Z,4.22
2023-04-21T01:07:20.106Z,4.16
2023-04-21T01:09:46.182Z,4.07
2023-04-21T01:12:12.689Z,4.00
2023-04-21T01:14:38.887Z,3.89
2023-04-21T01:17:05.457Z,3.85
2023-04-21T01:19:32.049Z,3.82
2023-04-21T01:22:00.101Z,3.79
2023-04-21T01:24:26.444Z,3.78
2023-04-21T01:26:52.546Z,3.78
2023-04-21T01:29:18.873Z,3.78
2023-04-21T01:31:46.895Z,3.78
2023-04-21T01:34:13.153Z,3.78
2023-04-21T01:36:39.295Z,3.76
2023-04-21T01:39:05.424Z,3.72
2023-04-21T01:41:31.590Z,3.61
2023-04-21T01:43:57.767Z,3.50
2023-04-21T01:46:23.920Z,3.38
2023-04-21T01:48:50.400Z,3.35
2023-04-21T01:51:16.665Z,3.37
2023-04-21T01:53:42.728Z,3.34
2023-04-21T01:56:08.836Z,3.26
2023-04-21T01:58:34.978Z,3.18
2023-04-21T02:01:01.391Z,3.12
2023-04-21T02:03:27.622Z,3.11
2023-04-21T02:05:53.867Z,3.12
2023-04-21T02:08:19.971Z,3.13
2023-04-21T02:10:46.054Z,3.13
2023-04-21T02:13:12.196Z,3.13
2023-04-21T02:15:38.362Z,3.15
2023-04-21T02:18:04.615Z,3.15
2023-04-21T02:20:30.753Z,3.17
2023-04-21T02:22:56.826Z,3.18
2023-04-21T02:25:22.971Z,3.19
2023-04-21T02:27:49.137Z,3.20
2023-04-21T02:30:15.750Z,3.21
2023-04-21T02:32:42.167Z,3.22
2023-04-21T02:35:08.351Z,3.24
2023-04-21T02:37:34.549Z,3.22
2023-04-21T02:40:00.986Z,3.18
2023-04-21T02:42:27.204Z,3.21
2023-04-21T02:44:53.353Z,3.16
2023-04-21T02:47:19.564Z,3.18
2023-04-21T02:49:45.767Z,3.18
2023-04-21T02:52:11.941Z,3.17
2023-04-21T02:54:38.082Z,3.20
2023-04-21T02:57:04.482Z,3.20
2023-04-21T02:59:30.551Z,3.19
2023-04-21T03:01:56.786Z,3.17
2023-04-21T03:04:24.816Z,3.18
2023-04-21T03:06:51.062Z,3.16
2023-04-21T03:09:17.407Z,3.08
2023-04-21T03:11:43.749Z,3.02
2023-04-21T03:14:09.811Z,3.00
2023-04-21T03:16:35.962Z,3.04
2023-04-21T03:19:02.037Z,3.05
2023-04-21T03:21:28.154Z,3.08
2023-04-21T03:23:54.308Z,3.11
2023-04-21T03:26:20.611Z,3.15
2023-04-21T03:28:46.856Z,3.19
2023-04-21T03:31:12.966Z,3.19
2023-04-21T03:33:39.044Z,3.21
2023-04-21T03:36:06.087Z,3.22
2023-04-21T03:38:32.388Z,3.22
2023-04-21T03:40:58.525Z,3.20
2023-04-21T03:43:24.803Z,3.19
2023-04-21T03:45:51.056Z,3.21
2023-04-21T03:48:17.160Z,3.19
2023-04-21T03:50:43.287Z,3.22
2023-04-21T03:53:09.635Z,3.25
2023-04-21T03:55:35.785Z,3.24
2023-04-21T03:58:02.081Z,3.25
2023-04-21T04:00:28.333Z,3.26
2023-04-21T04:02:54.570Z,3.30
2023-04-21T04:05:20.902Z,3.36
2023-04-21T04:07:47.084Z,3.38
2023-04-21T04:10:13.113Z,3.40
2023-04-21T04:12:39.374Z,3.45
2023-04-21T04:15:05.632Z,3.50
2023-04-21T04:17:31.752Z,3.52
2023-04-21T04:19:57.891Z,3.52
2023-04-21T04:22:24.025Z,3.45
2023-04-21T04:24:50.607Z,3.39
2023-04-21T04:27:17.338Z,3.37
2023-04-21T04:29:45.801Z,3.40
2023-04-21T04:32:11.887Z,3.43
2023-04-21T04:34:38.111Z,3.48
2023-04-21T04:37:04.302Z,3.51
2023-04-21T04:39:31.285Z,3.53
2023-04-21T04:41:57.385Z,3.56
2023-04-21T04:44:25.217Z,3.54
2023-04-21T04:46:51.988Z,3.51
2023-04-21T04:49:18.123Z,3.53
2023-04-21T04:51:44.218Z,3.51
2023-04-21T04:54:10.464Z,3.47
2023-04-21T04:56:36.972Z,3.47
2023-04-21T04:59:03.272Z,3.49
2023-04-21T05:01:30.225Z,3.50
2023-04-21T05:03:56.709Z,3.54
2023-04-21T05:06:23.054Z,3.60
2023-04-21T05:08:49.133Z,3.63
2023-04-21T05:11:15.201Z,3.64
2023-04-21T05:13:41.316Z,3.70
2023-04-21T05:16:09.025Z,3.78
2023-04-21T05:18:35.154Z,3.87
2023-04-21T05:21:01.288Z,3.95
2023-04-21T05:23:27.392Z,4.03
2023-04-21T05:25:53.530Z,4.08
2023-04-21T05:28:19.653Z,4.13
2023-04-21T05:30:45.806Z,4.21
2023-04-21T05:33:12.267Z,4.29
2023-04-21T05:35:38.473Z,4.37
2023-04-21T05:38:04.549Z,4.45
2023-04-21T05:40:30.630Z,4.53
2023-04-21T05:42:56.739Z,4.60
2023-04-21T05:45:22.878Z,4.65
2023-04-21T05:47:49.314Z,4.72
2023-04-21T05:50:16.440Z,4.75
2023-04-21T05:52:42.599Z,4.78
2023-04-21T05:55:09.009Z,4.80
2023-04-21T05:57:35.359Z,4.83
2023-04-21T06:00:01.518Z,4.84
2023-04-21T06:02:27.828Z,4.83
2023-04-21T06:04:54.446Z,4.86
2023-04-21T06:07:21.026Z,4.84
2023-04-21T06:09:47.201Z,4.80
2023-04-21T06:12:13.414Z,4.80
2023-04-21T06:14:39.544Z,4.89
2023-04-21T06:17:05.765Z,5.01
2023-04-21T06:19:31.911Z,5.17
2023-04-21T06:21:58.021Z,5.29
2023-04-21T06:24:24.630Z,5.40
2023-04-21T06:26:51.251Z,5.51
2023-04-21T06:29:17.847Z,5.62
2023-04-21T06:31:44.071Z,5.73
2023-04-21T06:34:10.283Z,5.87
2023-04-21T06:36:36.389Z,6.01
2023-04-21T06:39:04.063Z,6.12
2023-04-21T06:41:30.324Z,6.20
2023-04-21T06:43:56.567Z,6.28
2023-04-21T06:46:22.698Z,6.35
2023-04-21T06:48:49.048Z,6.41
2023-04-21T06:51:15.331Z,6.51
2023-04-21T06:53:41.437Z,6.68
2023-04-21T06:56:07.812Z,6.83
2023-04-21T06:58:33.870Z,6.97
2023-04-21T07:01:00.121Z,7.12
2023-04-21T07:03:26.482Z,7.28
2023-04-21T07:05:52.617Z,7.40
2023-04-21T07:08:18.754Z,7.51
2023-04-21T07:10:45.068Z,7.62
2023-04-21T07:13:11.184Z,7.76
2023-04-21T07:15:37.272Z,7.91
2023-04-21T07:18:06.494Z,8.10
2023-04-21T07:20:32.731Z,8.30
2023-04-21T07:22:58.867Z,8.44
2023-04-21T07:25:25.197Z,8.59
2023-04-21T07:27:51.269Z,8.75
2023-04-21T07:30:17.507Z,8.89
2023-04-21T07:32:46.692Z,9.00
2023-04-21T07:35:13.054Z,9.11
2023-04-21T07:37:39.929Z,9.27
2023-04-21T07:40:06.281Z,9.39
2023-04-21T07:42:32.397Z,9.51
2023-04-21T07:45:00.449Z,9.65
2023-04-21T07:47:26.811Z,9.80
2023-04-21T07:49:53.046Z,9.90
2023-04-21T07:52:19.294Z,10.02
2023-04-21T07:54:45.408Z,10.12
2023-04-21T07:57:11.792Z,10.25
2023-04-21T07:59:37.990Z,10.42
2023-04-21T08:02:04.205Z,10.61
2023-04-21T08:04:30.869Z,10.77
2023-04-21T08:06:57.598Z,10.82
2023-04-21T08:09:23.839Z,10.90
2023-04-21T08:11:50.126Z,10.99
2023-04-21T08:14:16.690Z,11.16
2023-04-21T08:16:43.032Z,11.40
2023-04-21T08:19:09.239Z,11.55
2023-04-21T08:21:35.426Z,11.76
2023-04-21T08:24:01.545Z,11.98
2023-04-21T08:26:29.482Z,12.13
2023-04-21T08:28:55.740Z,12.25
2023-04-21T08:31:22.104Z,12.29
2023-04-21T08:34:00.372Z,12.31
2023-04-21T08:36:29.908Z,12.31
2023-04-21T08:38:56.818Z,12.35
2023-04-21T08:41:23.057Z,12.40
2023-04-21T08:43:49.256Z,12.40
2023-04-21T08:46:15.445Z,12.39
2023-04-21T08:48:41.583Z,12.41
2023-04-21T08:51:10.904Z,12.46
2023-04-21T08:53:37.040Z,12.56
2023-04-21T08:56:10.622Z,12.63
2023-04-21T08:58:37.240Z,12.61
2023-04-21T09:01:03.336Z,12.56
2023-04-21T09:03:30.290Z,12.54
2023-04-21T09:05:56.870Z,12.54
2023-04-21T09:08:24.828Z,12.53
2023-04-21T09:10:53.219Z,12.52
2023-04-21T09:13:22.590Z,12.52
2023-04-21T09:15:49.097Z,12.52
2023-04-21T09:18:15.475Z,12.53
2023-04-21T09:20:42.771Z,12.53
2023-04-21T09:23:08.932Z,12.58
2023-04-21T09:25:35.112Z,12.61
2023-04-21T09:28:01.258Z,12.61
2023-04-21T09:30:27.480Z,12.62
2023-04-21T09:32:53.601Z,12.65
2023-04-21T09:35:19.936Z,12.70
2023-04-21T09:37:46.263Z,12.78
2023-04-21T09:40:12.379Z,12.83
2023-04-21T09:42:40.154Z,12.91
2023-04-21T09:45:23.651Z,13.06
2023-04-21T09:47:56.119Z,13.11
2023-04-21T09:50:41.865Z,13.06
2023-04-21T09:53:08.642Z,13.01
2023-04-21T09:55:34.774Z,12.99
2023-04-21T09:58:01.242Z,12.98
2023-04-21T10:00:27.940Z,12.98
2023-04-21T10:02:54.203Z,13.00
2023-04-21T10:05:20.416Z,12.96
2023-04-21T10:07:46.601Z,12.93
2023-04-21T10:10:12.716Z,12.88
2023-04-21T10:12:38.783Z,12.83
2023-04-21T10:15:05.782Z,12.82
2023-04-21T10:17:32.039Z,12.82
2023-04-21T10:19:58.418Z,12.81
2023-04-21T10:22:24.744Z,12.81
2023-04-21T10:24:50.810Z,12.84
2023-04-21T10:27:16.851Z,12.86
2023-04-21T10:29:56.031Z,12.85
2023-04-21T10:32:22.588Z,12.85
2023-04-21T10:34:50.202Z,12.88
2023-04-21T10:37:16.259Z,12.90
2023-04-21T10:39:42.338Z,12.96
2023-04-21T10:42:08.519Z,13.00
2023-04-21T10:44:34.815Z,13.07
2023-04-21T10:47:01.225Z,13.16
2023-04-21T10:49:27.852Z,13.22
2023-04-21T10:51:54.005Z,13.23
2023-04-21T10:54:20.415Z,13.26
2023-04-21T10:56:46.804Z,13.39
2023-04-21T10:59:12.891Z,13.52
2023-04-21T11:01:39.107Z,13.56
2023-04-21T11:04:05.529Z,13.51
2023-04-21T11:06:32.088Z,13.43
2023-04-21T11:08:58.202Z,13.42
2023-04-21T11:11:24.380Z,13.38
2023-04-21T11:13:50.655Z,13.36
2023-04-21T11:16:16.815Z,13.34
2023-04-21T11:18:43.173Z,13.37
2023-04-21T11:21:09.694Z,13.42
2023-04-21T11:23:35.884Z,13.44
2023-04-21T11:26:02.024Z,13.43
2023-04-21T11:28:47.030Z,13.47
2023-04-21T11:31:32.002Z,13.49
2023-04-21T11:34:17.029Z,13.54
2023-04-21T11:37:01.926Z,13.66
2023-04-21T11:39:28.138Z,13.85
2023-04-21T11:42:13.115Z,14.06
2023-04-21T11:44:39.251Z,14.09
2023-04-21T11:47:24.155Z,14.10
2023-04-21T11:49:50.699Z,14.20
2023-04-21T11:52:16.854Z,14.25
2023-04-21T11:55:01.869Z,14.26
2023-04-21T11:57:28.052Z,14.27
2023-04-21T11:59:54.331Z,14.12
2023-04-21T12:02:39.413Z,14.02
2023-04-21T12:05:24.601Z,14.04
2023-04-21T12:08:09.513Z,14.02
2023-04-21T12:10:35.773Z,13.99
2023-04-21T12:13:20.720Z,13.89
2023-04-21T12:15:46.820Z,13.79
2023-04-21T12:18:13.555Z,13.68
2023-04-21T12:20:40.365Z,13.65
2023-04-21T12:23:06.454Z,13.66
2023-04-21T12:25:32.966Z,13.69
2023-04-21T12:27:59.179Z,13.71
2023-04-21T12:30:25.686Z,13.68
2023-04-21T12:32:53.589Z,13.67
2023-04-21T12:35:19.801Z,13.60
2023-04-21T12:37:46.123Z,13.57
2023-04-21T12:40:12.403Z,13.56
2023-04-21T12:42:38.735Z,13.57
2023-04-21T12:45:04.896Z,13.58
2023-04-21T12:47:31.073Z,13.61
2023-04-21T12:49:57.351Z,13.65
2023-04-21T12:52:23.492Z,13.66
2023-04-21T12:54:49.884Z,13.71
2023-04-21T12:57:16.251Z,13.80
2023-04-21T12:59:44.076Z,13.91
2023-04-21T13:02:11.824Z,14.02
2023-04-21T13:04:41.290Z,14.00
2023-04-21T13:07:07.655Z,13.90
2023-04-21T13:09:33.937Z,13.81
2023-04-21T13:12:01.539Z,13.76
2023-04-21T13:14:27.895Z,13.71
2023-04-21T13:16:54.455Z,13.67
2023-04-21T13:19:20.681Z,13.66
2023-04-21T13:21:47.376Z,13.63
2023-04-21T13:24:14.845Z,13.66
2023-04-21T13:26:41.276Z,13.68
2023-04-21T13:29:07.528Z,13.69
2023-04-21T13:31:33.831Z,13.73
2023-04-21T13:34:00.627Z,13.78
2023-04-21T13:36:26.946Z,13.81
2023-04-21T13:38:55.156Z,13.78
2023-04-21T13:41:21.292Z,13.78
2023-04-21T13:43:47.463Z,13.80
2023-04-21T13:46:14.023Z,13.79
2023-04-21T13:48:40.488Z,13.72
2023-04-21T13:51:07.476Z,13.67
2023-04-21T13:53:33.658Z,13.62
2023-04-21T13:55:59.927Z,13.66
2023-04-21T13:58:26.344Z,13.74
2023-04-21T14:00:52.536Z,13.85
2023-04-21T14:03:19.060Z,13.96
2023-04-21T14:05:45.532Z,14.03
2023-04-21T14:08:11.894Z,14.14
2023-04-21T14:10:38.071Z,14.20
2023-04-21T14:13:04.405Z,14.29
2023-04-21T14:15:30.966Z,14.43
2023-04-21T14:17:57.391Z,14.47
2023-04-21T14:20:23.597Z,14.34
2023-04-21T14:22:49.838Z,14.15
2023-04-21T14:25:16.128Z,14.04
2023-04-21T14:27:42.497Z,13.99
2023-04-21T14:30:09.901Z,13.96
2023-04-21T14:32:36.158Z,13.90
2023-04-21T14:35:04.209Z,13.89
2023-04-21T14:37:30.399Z,13.95
2023-04-21T14:39:56.668Z,14.06
2023-04-21T14:42:22.888Z,14.18
2023-04-21T14:44:49.130Z,14.32
2023-04-21T14:47:15.463Z,14.39
2023-04-21T14:49:41.867Z,14.46
2023-04-21T14:52:08.706Z,14.47
2023-04-21T14:54:34.907Z,14.53
2023-04-21T14:57:17.979Z,14.56
2023-04-21T14:59:46.098Z,14.59
2023-04-21T15:02:12.635Z,14.61
2023-04-21T15:04:39.099Z,14.52
2023-04-21T15:07:05.487Z,14.32
2023-04-21T15:09:31.772Z,14.21
2023-04-21T15:11:58.626Z,14.17
2023-04-21T15:14:24.867Z,14.04
2023-04-21T15:16:51.360Z,14.00
2023-04-21T15:19:17.458Z,14.00
2023-04-21T15:21:43.742Z,14.06
2023-04-21T15:24:10.222Z,14.07
2023-04-21T15:26:37.003Z,14.12
2023-04-21T15:29:03.841Z,14.15
2023-04-21T15:31:31.334Z,14.15
2023-04-21T15:33:58.563Z,14.20
2023-04-21T15:36:27.307Z,14.28
2023-04-21T15:38:55.028Z,14.31
2023-04-21T15:41:22.570Z,14.37
2023-04-21T15:43:49.485Z,14.44
2023-04-21T15:46:15.750Z,14.43
2023-04-21T15:48:41.980Z,14.37
2023-04-21T15:51:08.826Z,14.34
2023-04-21T15:53:36.704Z,14.31
2023-04-21T15:56:04.262Z,14.26
2023-04-21T15:58:31.010Z,14.23
2023-04-21T16:00:57.195Z,14.32
2023-04-21T16:03:23.444Z,14.55
2023-04-21T16:05:50.521Z,14.59
2023-04-21T16:08:17.080Z,14.44
2023-04-21T16:10:43.375Z,14.32
2023-04-21T16:13:09.622Z,14.29
2023-04-21T16:15:36.031Z,14.23
2023-04-21T16:18:05.711Z,14.15
2023-04-21T16:20:31.920Z,14.08
2023-04-21T16:22:58.099Z,14.04
2023-04-21T16:25:24.459Z,14.03
2023-04-21T16:27:50.941Z,14.00
2023-04-21T16:30:16.997Z,13.96
2023-04-21T16:32:43.131Z,13.92
2023-04-21T16:35:10.073Z,13.87
2023-04-21T16:37:37.558Z,13.81
2023-04-21T16:40:06.815Z,13.77
2023-04-21T16:42:33.034Z,13.71
2023-04-21T16:45:02.454Z,13.62
2023-04-21T16:47:28.887Z,13.57
2023-04-21T16:49:55.243Z,13.54
2023-04-21T16:52:21.615Z,13.52
2023-04-21T16:54:47.800Z,13.50
2023-04-21T16:57:13.964Z,13.44
2023-04-21T16:59:40.138Z,13.36
2023-04-21T17:02:06.331Z,13.30
2023-04-21T17:04:32.642Z,13.21
2023-04-21T17:06:58.790Z,13.15
2023-04-21T17:09:25.014Z,13.10
2023-04-21T17:11:51.135Z,13.02
2023-04-21T17:14:17.244Z,12.96
2023-04-21T17:16:43.425Z,12.90
2023-04-21T17:19:09.841Z,12.81
2023-04-21T17:21:36.028Z,12.72
2023-04-21T17:24:02.120Z,12.64
2023-04-21T17:26:28.266Z,12.57
2023-04-21T17:28:54.576Z,12.49
2023-04-21T17:31:20.971Z,12.40
2023-04-21T17:33:47.294Z,12.30
2023-04-21T17:36:13.449Z,12.20
2023-04-21T17:38:41.895Z,12.15
2023-04-21T17:41:08.306Z,12.10
2023-04-21T17:43:34.404Z,12.05
2023-04-21T17:46:00.767Z,11.99
2023-04-21T17:48:26.949Z,11.95
2023-04-21T17:50:53.043Z,11.94
2023-04-21T17:53:19.265Z,11.92
2023-04-21T17:55:45.389Z,11.85
2023-04-21T17:58:12.581Z,11.67
2023-04-21T18:00:38.963Z,11.58
2023-04-21T18:03:05.304Z,11.57
2023-04-21T18:05:31.610Z,11.56
2023-04-21T18:07:57.716Z,11.55
2023-04-21T18:10:23.857Z,11.54
2023-04-21T18:12:50.655Z,11.48
2023-04-21T18:15:16.857Z,11.42
2023-04-21T18:17:43.102Z,11.36
2023-04-21T18:20:11.589Z,11.30
2023-04-21T18:22:37.685Z,11.26
2023-04-21T18:25:03.980Z,11.19
2023-04-21T18:27:30.368Z,11.09
2023-04-21T18:29:56.439Z,11.00
2023-04-21T18:32:23.106Z,10.96
2023-04-21T18:34:49.241Z,10.91
2023-04-21T18:37:15.370Z,10.81
2023-04-21T18:39:41.631Z,10.67
2023-04-21T18:42:07.913Z,10.61
2023-04-21T18:44:34.284Z,10.58
2023-04-21T18:47:00.496Z,10.50
2023-04-21T18:49:26.910Z,10.44
2023-04-21T18:51:53.038Z,10.35
2023-04-21T18:54:19.187Z,10.26
2023-04-21T18:56:45.509Z,10.16
2023-04-21T18:59:11.588Z,10.09
2023-04-21T19:01:38.215Z,10.02
2023-04-21T19:04:05.321Z,9.89
2023-04-21T19:06:31.884Z,9.70
2023-04-21T19:08:58.148Z,9.54
2023-04-21T19:11:24.492Z,9.36
2023-04-21T19:13:50.588Z,9.20
2023-04-21T19:16:16.804Z,9.12
2023-04-21T19:18:43.144Z,9.09
2023-04-21T19:21:12.689Z,9.03
2023-04-21T19:23:38.969Z,8.91
2023-04-21T19:26:05.350Z,8.77
2023-04-21T19:28:31.454Z,8.61
2023-04-21T19:30:57.812Z,8.46
2023-04-21T19:33:23.883Z,8.39
2023-04-21T19:35:50.008Z,8.35
2023-04-21T19:38:16.690Z,8.31
2023-04-21T19:40:44.510Z,8.30
2023-04-21T19:43:10.804Z,8.24
2023-04-21T19:45:37.510Z,8.12
2023-04-21T19:48:03.963Z,7.98
2023-04-21T19:50:30.997Z,7.92
2023-04-21T19:52:57.994Z,7.90
2023-04-21T19:55:24.278Z,7.82
2023-04-21T19:57:50.471Z,7.74
2023-04-21T20:00:16.617Z,7.64
2023-04-21T20:02:43.170Z,7.57
2023-04-21T20:05:09.687Z,7.50
2023-04-21T20:07:35.887Z,7.49
2023-04-21T20:10:02.130Z,7.45
2023-04-21T20:12:28.241Z,7.38
2023-04-21T20:14:54.469Z,7.30
2023-04-21T20:17:20.783Z,7.15
2023-04-21T20:19:47.797Z,7.05
2023-04-21T20:22:14.268Z,6.90
2023-04-21T20:24:43.169Z,6.81
2023-04-21T20:27:09.271Z,6.72
2023-04-21T20:29:35.929Z,6.68
2023-04-21T20:32:02.920Z,6.64
2023-04-21T20:34:29.186Z,6.60
2023-04-21T20:36:55.349Z,6.54
2023-04-21T20:39:21.489Z,6.43
2023-04-21T20:41:57.941Z,6.35
2023-04-21T20:44:32.970Z,6.27
2023-04-21T20:46:59.172Z,6.20
2023-04-21T20:49:26.217Z,6.09
2023-04-21T20:51:52.444Z,6.05
2023-04-21T20:54:18.543Z,6.01
2023-04-21T20:56:44.737Z,5.98
2023-04-21T20:59:11.014Z,5.91
2023-04-21T21:01:39.231Z,5.82
2023-04-21T21:04:05.772Z,5.75
2023-04-21T21:06:32.106Z,5.72
2023-04-21T21:08:58.188Z,5.67
2023-04-21T21:11:24.254Z,5.59
2023-04-21T21:13:50.742Z,5.53
2023-04-21T21:16:16.913Z,5.51
2023-04-21T21:18:43.115Z,5.51
2023-04-21T21:21:09.249Z,5.50
2023-04-21T21:23:36.060Z,5.51
2023-04-21T21:26:02.171Z,5.51
2023-04-21T21:28:29.603Z,5.49
2023-04-21T21:30:55.756Z,5.47
2023-04-21T21:33:21.912Z,5.46
2023-04-21T21:35:48.070Z,5.46
2023-04-21T21:38:14.234Z,5.44
2023-04-21T21:40:40.330Z,5.43
2023-04-21T21:43:06.951Z,5.41
2023-04-21T21:45:33.201Z,5.35
2023-04-21T21:47:59.388Z,5.28
2023-04-21T21:50:25.742Z,5.24
2023-04-21T21:52:51.848Z,5.22
2023-04-21T21:55:17.947Z,5.21
2023-04-21T21:57:44.075Z,5.18
2023-04-21T22:00:13.219Z,5.09
2023-04-21T22:02:39.499Z,5.05
2023-04-21T22:05:05.709Z,5.01
2023-04-21T22:07:31.818Z,4.95
2023-04-21T22:09:59.069Z,4.93
2023-04-21T22:12:25.280Z,4.88
2023-04-21T22:14:52.217Z,4.79
2023-04-21T22:17:18.469Z,4.70
2023-04-21T22:19:44.890Z,4.64
2023-04-21T22:22:11.097Z,4.58
2023-04-21T22:24:37.331Z,4.56
2023-04-21T22:27:03.864Z,4.54
2023-04-21T22:29:30.403Z,4.49
2023-04-21T22:31:56.511Z,4.48
2023-04-21T22:34:23.434Z,4.44
2023-04-21T22:36:49.765Z,4.38
2023-04-21T22:39:16.049Z,4.35
2023-04-21T22:41:42.207Z,4.26
2023-04-21T22:44:08.452Z,4.22
2023-04-21T22:46:34.543Z,4.17
2023-04-21T22:49:01.661Z,4.13
2023-04-21T22:51:29.142Z,4.06
2023-04-21T22:53:55.591Z,3.83
2023-04-21T22:56:21.764Z,3.70
2023-04-21T22:58:47.867Z,3.65
2023-04-21T23:01:14.105Z,3.60
2023-04-21T23:03:40.436Z,3.55
2023-04-21T23:06:06.587Z,3.49
2023-04-21T23:08:32.687Z,3.43
2023-04-21T23:10:59.021Z,3.35
2023-04-21T23:13:25.146Z,3.32
2023-04-21T23:15:51.334Z,3.24
2023-04-21T23:18:17.480Z,3.19
2023-04-21T23:20:43.580Z,3.19
2023-04-21T23:23:09.757Z,3.22
2023-04-21T23:25:36.037Z,3.20
2023-04-21T23:28:02.135Z,3.17
2023-04-21T23:30:29.824Z,3.15
2023-04-21T23:32:56.137Z,3.14
2023-04-21T23:35:22.278Z,3.12
2023-04-21T23:37:48.515Z,3.11
2023-04-21T23:40:14.720Z,3.10
2023-04-21T23:42:40.789Z,3.01
2023-04-21T23:45:07.369Z,2.98
2023-04-21T23:47:33.595Z,2.99
2023-04-21T23:49:59.886Z,2.98
2023-04-21T23:52:26.232Z,2.91
2023-04-21T23:54:52.471Z,2.79
2023-04-21T23:57:18.561Z,2.70
2023-04-21T23:59:45.141Z,2.66
